Time;durP1;ratioP1;P1;durP2;ratioP2;P2;SDS_P1;SDS_P2;PMS_P1;PMS_P2;Temp;Humidity;BMP_temperature;BMP_pressure;BME280_temperature;BME280_humidity;BME280_pressure;Samples;Min_cycle;Max_cycle;Signal;HPM_P1;HPM_P2
2021/12/25 00:00:55;;;;;;;3.92;0.80;;;0.30;99.90;;;;;;5096344;28;20058;-69
2021/12/25 00:03:21;;;;;;;3.97;0.85;;;0.10;99.90;;;;;;5111028;27;20032;-69
2021/12/25 00:05:52;;;;;;;2.35;0.90;;;0.10;99.90;;;;;;5085180;28;20488;-69
2021/12/25 00:08:19;;;;;;;2.50;0.88;;;0.00;99.90;;;;;;5094244;28;20413;-69
2021/12/25 00:10:45;;;;;;;3.67;1.08;;;0.00;99.90;;;;;;5107442;28;20031;-69
2021/12/25 00:13:10;;;;;;;6.25;1.15;;;0.00;99.90;;;;;;5092665;28;20380;-69
2021/12/25 00:15:36;;;;;;;3.92;0.90;;;0.10;99.90;;;;;;5138440;27;20042;-69
2021/12/25 00:18:01;;;;;;;4.63;1.00;;;0.10;99.90;;;;;;5131952;27;20043;-69
2021/12/25 00:20:27;;;;;;;6.88;1.45;;;0.10;99.90;;;;;;5133327;27;20123;-69
2021/12/25 00:22:52;;;;;;;5.32;0.88;;;0.00;99.90;;;;;;5127561;27;20054;-69
2021/12/25 00:25:20;;;;;;;2.85;0.70;;;-0.10;99.90;;;;;;5095005;28;20122;-69
2021/12/25 00:28:05;;;;;;;3.80;0.98;;;0.00;99.90;;;;;;5076513;28;20051;-69
2021/12/25 00:30:41;;;;;;;4.55;0.90;;;0.10;99.90;;;;;;5094580;27;21142;-69
2021/12/25 00:33:31;;;;;;;5.68;0.82;;;-0.20;99.90;;;;;;5113182;28;20436;-69
2021/12/25 00:35:52;;;;;;;5.15;0.75;;;-0.40;99.90;;;;;;5112225;27;20101;-69
2021/12/25 00:38:18;;;;;;;3.85;0.65;;;-0.30;99.90;;;;;;5096040;28;20039;-69
2021/12/25 00:40:43;;;;;;;2.78;0.50;;;-0.50;99.90;;;;;;5092006;28;20560;-69
2021/12/25 00:43:10;;;;;;;3.50;1.48;;;-0.60;99.90;;;;;;5109680;28;20067;-69
2021/12/25 00:45:35;;;;;;;3.40;0.82;;;-0.50;99.90;;;;;;5094093;28;20105;-69
2021/12/25 00:48:01;;;;;;;2.67;0.73;;;-0.40;99.90;;;;;;5130155;27;20476;-69
2021/12/25 00:50:26;;;;;;;3.40;0.52;;;-0.40;99.90;;;;;;5111188;28;20492;-69
2021/12/25 00:52:52;;;;;;;3.78;0.60;;;-0.50;99.90;;;;;;5109048;28;20074;-69
2021/12/25 00:55:17;;;;;;;3.28;0.60;;;-0.40;99.90;;;;;;5092649;28;20032;-68
2021/12/25 00:57:43;;;;;;;2.55;0.50;;;-0.70;99.90;;;;;;5116557;27;20534;-68
2021/12/25 01:00:12;;;;;;;3.22;0.52;;;-0.60;99.90;;;;;;5096056;28;20380;-68
2021/12/25 01:02:40;;;;;;;2.67;0.68;;;-0.50;99.90;;;;;;5091887;28;20044;-68
2021/12/25 01:05:06;;;;;;;3.08;0.60;;;-0.60;99.90;;;;;;5093108;28;20040;-68
2021/12/25 01:07:32;;;;;;;3.65;0.70;;;-0.60;99.90;;;;;;5091802;28;20040;-68
2021/12/25 01:09:57;;;;;;;3.30;0.80;;;-0.60;99.90;;;;;;5094230;28;20048;-68
2021/12/25 01:12:23;;;;;;;3.53;0.70;;;-0.50;99.90;;;;;;5096216;28;20429;-68
2021/12/25 01:14:55;;;;;;;3.35;1.20;;;-0.60;99.90;;;;;;5110677;28;20480;-68
2021/12/25 01:17:44;;;;;;;5.88;1.00;;;-0.70;99.90;;;;;;5092206;28;20401;-68
2021/12/25 01:31:05;;;;;;;2.65;0.47;;;-0.90;99.90;;;;;;5125841;27;20044;-68
2021/12/25 01:34:12;;;;;;;3.10;0.68;;;-0.90;99.90;;;;;;5120052;27;20096;-68
2021/12/25 01:38:57;;;;;;;3.50;0.80;;;-1.00;99.90;;;;;;5112944;28;20039;-68
2021/12/25 01:49:34;;;;;;;2.08;0.65;;;-1.10;99.90;;;;;;5126551;27;20472;-68
2021/12/25 01:52:00;;;;;;;3.17;0.75;;;-1.00;99.90;;;;;;5092936;28;20067;-68
2021/12/25 01:54:26;;;;;;;4.85;0.70;;;-1.00;99.90;;;;;;5111606;28;20040;-68
2021/12/25 01:56:51;;;;;;;2.95;0.60;;;-1.00;99.90;;;;;;5083070;28;20031;-68
2021/12/25 01:59:17;;;;;;;2.92;0.68;;;-1.20;99.90;;;;;;5146359;27;20555;-68
2021/12/25 02:01:43;;;;;;;1.25;0.50;;;-1.20;99.90;;;;;;5125381;27;20082;-68
2021/12/25 02:04:09;;;;;;;3.78;0.60;;;-1.20;99.90;;;;;;5108434;28;20445;-68
2021/12/25 02:06:36;;;;;;;2.85;0.90;;;-1.20;99.90;;;;;;5074568;28;20119;-68
2021/12/25 02:09:05;;;;;;;2.67;0.70;;;-1.20;99.90;;;;;;5090948;28;20040;-68
2021/12/25 02:11:30;;;;;;;3.15;0.80;;;-1.40;99.90;;;;;;5088035;28;20057;-68
2021/12/25 02:13:58;;;;;;;7.10;0.95;;;-1.30;99.90;;;;;;5094679;28;20039;-68
2021/12/25 02:16:29;;;;;;;0.95;0.65;;;-1.30;99.90;;;;;;5110618;28;20047;-68
2021/12/25 02:21:25;;;;;;;3.22;0.85;;;-1.10;99.90;;;;;;5095614;28;20048;-68
2021/12/25 02:23:51;;;;;;;3.38;0.70;;;-1.30;99.90;;;;;;5098591;28;20054;-68
2021/12/25 02:26:18;;;;;;;2.65;0.63;;;-1.30;99.90;;;;;;5094364;28;20051;-68
2021/12/25 02:28:44;;;;;;;2.97;0.70;;;-1.40;99.90;;;;;;5111004;28;20031;-68
2021/12/25 02:31:12;;;;;;;9.50;1.00;;;-1.40;99.90;;;;;;5088346;28;20036;-68
2021/12/25 02:33:39;;;;;;;4.60;0.60;;;-1.50;99.90;;;;;;5110863;28;20067;-68
2021/12/25 02:36:06;;;;;;;3.30;0.70;;;-1.50;99.90;;;;;;5110581;28;20063;-68
2021/12/25 02:38:32;;;;;;;2.83;0.90;;;-1.60;99.90;;;;;;5094450;28;20400;-68
2021/12/25 02:40:59;;;;;;;3.35;1.33;;;-1.50;99.90;;;;;;5089004;28;20047;-68
2021/12/25 02:43:24;;;;;;;3.53;0.93;;;-1.50;99.90;;;;;;5098111;28;20035;-68
2021/12/25 02:45:54;;;;;;;1.17;0.50;;;-1.70;99.90;;;;;;5132371;27;20040;-68
2021/12/25 02:48:20;;;;;;;1.92;0.50;;;-1.70;99.90;;;;;;5109356;28;20492;-68
2021/12/25 02:50:46;;;;;;;1.45;0.50;;;-1.50;99.90;;;;;;5105039;28;20046;-68
2021/12/25 02:53:13;;;;;;;3.75;0.98;;;-1.50;99.90;;;;;;5094321;28;20115;-68
2021/12/25 02:55:40;;;;;;;0.80;0.60;;;-1.70;99.90;;;;;;5077929;28;20085;-68
2021/12/25 02:58:06;;;;;;;2.55;0.70;;;-1.70;99.90;;;;;;5109615;28;20043;-68
2021/12/25 03:00:50;;;;;;;3.53;0.70;;;-1.70;99.90;;;;;;5107898;28;20043;-68
2021/12/25 03:03:16;;;;;;;3.92;0.95;;;-1.60;99.90;;;;;;5094673;28;20054;-68
2021/12/25 03:05:42;;;;;;;1.63;0.50;;;-1.70;99.90;;;;;;5094630;28;20067;-68
2021/12/25 03:08:10;;;;;;;2.38;0.73;;;-1.60;99.90;;;;;;5095561;28;20140;-68
2021/12/25 03:10:36;;;;;;;4.18;0.98;;;-1.80;99.90;;;;;;5112527;28;20115;-68
2021/12/25 03:13:18;;;;;;;2.88;0.70;;;-1.90;99.90;;;;;;5114805;28;20071;-68
2021/12/25 03:15:45;;;;;;;;;;;-1.90;99.90;;;;;;5077934;28;20084;-68
2021/12/25 03:18:27;;;;;;;4.53;0.90;;;-1.90;99.90;;;;;;5128724;27;19916;-68
2021/12/25 03:20:57;;;;;;;2.90;0.95;;;-1.90;99.90;;;;;;5113643;28;20089;-68
2021/12/25 03:23:25;;;;;;;1.38;0.50;;;-1.90;99.90;;;;;;5085865;28;20047;-68
2021/12/25 03:25:53;;;;;;;1.98;0.70;;;-1.80;99.90;;;;;;5093855;28;20036;-68
2021/12/25 03:28:21;;;;;;;2.63;0.70;;;-1.80;99.90;;;;;;5077211;28;20040;-68
2021/12/25 03:30:47;;;;;;;3.33;0.80;;;-1.90;99.90;;;;;;5100525;28;20045;-68
2021/12/25 03:33:16;;;;;;;2.42;0.57;;;-1.90;99.90;;;;;;5100487;28;20024;-68
2021/12/25 03:35:42;;;;;;;3.90;1.05;;;-2.00;99.90;;;;;;5101751;28;20089;-68
2021/12/25 03:38:11;;;;;;;2.25;0.70;;;-2.00;99.90;;;;;;5131382;27;20039;-68
2021/12/25 03:40:36;;;;;;;3.47;1.02;;;-1.90;99.90;;;;;;5094981;28;20047;-68
2021/12/25 03:43:03;;;;;;;2.83;0.88;;;-1.90;99.90;;;;;;5114636;28;20055;-68
2021/12/25 03:45:31;;;;;;;1.55;0.70;;;-1.80;99.90;;;;;;5111260;28;20485;-68
2021/12/25 03:48:13;;;;;;;3.58;0.55;;;-2.10;99.90;;;;;;5111460;28;20054;-68
2021/12/25 03:58:48;;;;;;;3.17;0.77;;;-2.20;99.90;;;;;;5098372;28;20055;-68
2021/12/25 04:01:28;;;;;;;3.83;1.02;;;-2.20;99.90;;;;;;5117182;27;20039;-68
2021/12/25 04:06:35;;;;;;;5.13;1.08;;;-2.20;99.90;;;;;;5093444;28;20071;-68
2021/12/25 04:09:08;;;;;;;3.20;0.95;;;-2.20;99.90;;;;;;5092774;28;20089;-68
2021/12/25 04:11:35;;;;;;;1.90;0.68;;;-2.20;99.90;;;;;;5093254;28;20153;-68
2021/12/25 04:14:01;;;;;;;3.58;0.77;;;-2.20;99.90;;;;;;5077219;28;20392;-68
2021/12/25 04:16:27;;;;;;;3.15;0.90;;;-2.20;99.90;;;;;;5111724;28;20054;-68
2021/12/25 04:18:54;;;;;;;2.45;0.60;;;-2.30;99.90;;;;;;5092318;28;20035;-68
2021/12/25 04:21:20;;;;;;;2.75;0.70;;;-2.30;99.90;;;;;;5096589;28;20514;-68
2021/12/25 04:23:46;;;;;;;5.10;0.70;;;-2.30;99.90;;;;;;5103958;28;20038;-68
2021/12/25 04:26:13;;;;;;;3.22;0.73;;;-2.40;99.90;;;;;;5109957;28;20047;-68
2021/12/25 05:03:54;;;;;;;3.05;0.70;;;-2.50;99.90;;;;;;5092996;28;20048;-68
2021/12/25 05:06:22;;;;;;;3.05;0.60;;;-2.50;99.90;;;;;;5092161;28;20044;-68
2021/12/25 05:08:52;;;;;;;4.20;0.77;;;-2.60;99.90;;;;;;5092240;28;20040;-68
2021/12/25 05:11:18;;;;;;;3.00;0.70;;;-2.70;99.90;;;;;;5088950;28;20373;-68
2021/12/25 05:13:46;;;;;;;1.65;0.68;;;-2.60;99.90;;;;;;5147257;27;20127;-68
2021/12/25 05:16:13;;;;;;;1.83;0.68;;;-2.50;99.90;;;;;;5087283;28;20105;-68
2021/12/25 05:18:38;;;;;;;3.13;0.85;;;-2.50;99.90;;;;;;5091785;28;20044;-68
2021/12/25 05:21:04;;;;;;;1.42;0.60;;;-2.50;99.90;;;;;;5086910;28;20035;-68
2021/12/25 05:23:30;;;;;;;2.38;0.82;;;-2.40;99.90;;;;;;5141095;27;20032;-68
2021/12/25 05:25:55;;;;;;;2.72;0.70;;;-2.60;99.90;;;;;;5101497;28;20035;-68
2021/12/25 05:28:26;;;;;;;2.17;0.95;;;-2.60;99.90;;;;;;5127450;27;20050;-68
2021/12/25 05:30:53;;;;;;;1.73;0.60;;;-2.60;99.90;;;;;;5106806;28;20036;-68
2021/12/25 05:33:20;;;;;;;2.90;0.88;;;-2.60;99.90;;;;;;5112341;27;20067;-68
2021/12/25 05:35:46;;;;;;;3.40;0.70;;;-2.70;99.90;;;;;;5105682;28;20038;-68
2021/12/25 05:38:14;;;;;;;5.40;0.80;;;-2.60;99.90;;;;;;5104386;28;20112;-68
2021/12/25 05:40:42;;;;;;;2.83;0.75;;;-2.70;99.90;;;;;;5095634;28;20047;-68
2021/12/25 05:43:08;;;;;;;1.60;0.57;;;-2.70;99.90;;;;;;5092223;28;20051;-68
2021/12/25 05:45:34;;;;;;;4.40;1.15;;;-2.70;99.90;;;;;;5115032;27;20040;-68
2021/12/25 05:47:59;;;;;;;4.60;0.80;;;-2.90;99.90;;;;;;5097066;28;20110;-68
2021/12/25 05:50:26;;;;;;;4.70;0.80;;;-2.80;99.90;;;;;;5129869;27;20039;-68
2021/12/25 05:52:52;;;;;;;1.25;0.60;;;-2.70;99.90;;;;;;5094855;28;20484;-68
2021/12/25 05:55:17;;;;;;;1.35;0.80;;;-2.70;99.90;;;;;;5115671;27;20046;-68
2021/12/25 05:57:43;;;;;;;5.03;0.82;;;-2.80;99.90;;;;;;5142484;27;20031;-68
2021/12/25 06:00:10;;;;;;;1.45;0.60;;;-2.80;99.90;;;;;;5106771;28;20074;-68
2021/12/25 06:02:36;;;;;;;2.30;0.60;;;-2.80;99.90;;;;;;5085166;28;20047;-68
2021/12/25 06:05:04;;;;;;;3.38;0.50;;;-2.80;99.90;;;;;;5093640;28;20049;-68
2021/12/25 06:07:31;;;;;;;1.33;0.52;;;-2.80;99.90;;;;;;5108660;28;20040;-68
2021/12/25 06:09:56;;;;;;;2.03;0.80;;;-2.90;99.90;;;;;;5085557;28;20411;-68
2021/12/25 06:12:23;;;;;;;2.25;0.70;;;-2.80;99.90;;;;;;5109481;28;20043;-68
2021/12/25 06:14:49;;;;;;;3.30;0.73;;;-2.80;99.90;;;;;;5103459;28;20360;-68
2021/12/25 06:17:14;;;;;;;1.75;0.70;;;-2.90;99.90;;;;;;5111930;28;20040;-68
2021/12/25 06:19:40;;;;;;;1.10;0.30;;;-2.90;99.90;;;;;;5090715;28;20404;-68
2021/12/25 06:22:06;;;;;;;2.63;0.52;;;-2.90;99.90;;;;;;5103888;28;20626;-68
2021/12/25 06:24:32;;;;;;;2.03;0.75;;;-3.00;99.90;;;;;;5128188;28;20092;-68
2021/12/25 06:26:57;;;;;;;2.47;0.70;;;-3.00;99.90;;;;;;5092273;28;20074;-68
2021/12/25 06:29:23;;;;;;;2.13;0.60;;;-3.20;99.90;;;;;;5092336;28;20063;-68
2021/12/25 06:31:50;;;;;;;1.75;0.63;;;-3.10;99.90;;;;;;5092495;28;20036;-68
2021/12/25 06:34:16;;;;;;;1.55;0.60;;;-3.30;99.90;;;;;;5092628;28;20035;-68
2021/12/25 06:36:42;;;;;;;4.03;0.70;;;-3.20;99.90;;;;;;5095576;28;20036;-68
2021/12/25 06:39:11;;;;;;;1.48;0.50;;;-3.20;99.90;;;;;;5144488;27;20044;-68
2021/12/25 06:41:37;;;;;;;4.90;0.80;;;-3.20;99.90;;;;;;5095896;28;20091;-68
2021/12/25 06:44:03;;;;;;;3.50;0.80;;;-3.20;99.90;;;;;;5110630;28;20081;-68
2021/12/25 06:46:28;;;;;;;2.22;0.70;;;-3.10;99.90;;;;;;5104085;28;20958;-68
2021/12/25 06:48:55;;;;;;;1.30;0.50;;;-3.10;99.90;;;;;;5075598;28;20058;-68
2021/12/25 06:51:21;;;;;;;4.32;0.63;;;-3.20;99.90;;;;;;5090564;28;20127;-68
2021/12/25 06:53:47;;;;;;;2.67;0.50;;;-3.20;99.90;;;;;;5074390;28;20492;-68
2021/12/25 06:56:12;;;;;;;1.92;0.55;;;-3.20;99.90;;;;;;5091713;28;20385;-68
2021/12/25 06:58:38;;;;;;;2.15;0.80;;;-3.20;99.90;;;;;;5111510;28;20139;-68
2021/12/25 07:01:03;;;;;;;4.30;0.60;;;-3.30;99.90;;;;;;5106366;28;20047;-68
2021/12/25 07:03:29;;;;;;;1.90;0.50;;;-3.20;99.90;;;;;;5118934;28;20032;-68
2021/12/25 07:05:55;;;;;;;3.00;0.82;;;-3.20;99.90;;;;;;5108188;28;20452;-68
2021/12/25 07:08:20;;;;;;;1.60;0.68;;;-3.30;99.90;;;;;;5101431;28;20039;-68
2021/12/25 07:10:46;;;;;;;3.13;0.80;;;-3.30;99.90;;;;;;5127706;27;20047;-68
2021/12/25 07:13:17;;;;;;;1.48;0.50;;;-3.40;99.90;;;;;;5118287;28;20034;-68
2021/12/25 07:15:42;;;;;;;2.58;0.70;;;-3.20;99.90;;;;;;5104313;28;20040;-68
2021/12/25 07:18:08;;;;;;;1.85;0.65;;;-3.40;99.90;;;;;;5100111;28;20039;-68
2021/12/25 07:20:34;;;;;;;1.55;0.43;;;-3.40;99.90;;;;;;5118279;27;20062;-68
2021/12/25 07:23:00;;;;;;;2.55;0.57;;;-3.50;99.90;;;;;;5104078;28;20503;-68
2021/12/25 07:25:26;;;;;;;5.70;1.38;;;-3.40;99.90;;;;;;5109966;28;20036;-68
2021/12/25 07:27:52;;;;;;;3.15;0.90;;;-3.50;99.90;;;;;;5085598;28;20101;-68
2021/12/25 07:30:18;;;;;;;2.97;0.70;;;-3.50;99.90;;;;;;5082868;28;20062;-68
2021/12/25 07:32:44;;;;;;;3.85;0.93;;;-3.50;99.90;;;;;;5115214;27;20058;-68
2021/12/25 07:35:10;;;;;;;3.10;0.65;;;-3.40;99.90;;;;;;5096026;27;20035;-68
2021/12/25 07:37:36;;;;;;;2.65;0.60;;;-3.50;99.90;;;;;;5107191;28;20058;-68
2021/12/25 07:40:04;;;;;;;7.28;1.10;;;-3.40;99.90;;;;;;5148800;27;20061;-68
2021/12/25 07:42:30;;;;;;;4.55;1.02;;;-3.50;99.90;;;;;;5147748;27;20094;-68
2021/12/25 07:45:03;;;;;;;1.55;0.80;;;-3.40;99.90;;;;;;5118289;27;20078;-68
2021/12/25 07:47:31;;;;;;;2.35;0.82;;;-3.40;99.90;;;;;;5130837;27;20043;-68
2021/12/25 07:49:58;;;;;;;3.17;0.65;;;-3.40;99.90;;;;;;5114576;28;20613;-68
2021/12/25 07:52:24;;;;;;;3.25;0.98;;;-3.40;99.90;;;;;;5097456;28;20131;-68
2021/12/25 07:54:50;;;;;;;1.48;0.63;;;-3.50;99.90;;;;;;5121182;27;20447;-68
2021/12/25 07:57:15;;;;;;;2.88;0.70;;;-3.50;99.90;;;;;;5095805;28;20082;-68
2021/12/25 07:59:41;;;;;;;2.75;1.05;;;-3.50;99.90;;;;;;5097823;28;20381;-68
2021/12/25 08:02:07;;;;;;;1.30;0.60;;;-3.50;99.90;;;;;;5093920;28;20039;-68
2021/12/25 08:04:33;;;;;;;2.53;0.80;;;-3.40;99.90;;;;;;5114433;28;20035;-68
2021/12/25 08:06:59;;;;;;;2.92;1.20;;;-3.30;99.90;;;;;;5114150;28;20084;-68
2021/12/25 08:09:29;;;;;;;1.85;0.80;;;-3.40;99.90;;;;;;5118654;27;20093;-68
2021/12/25 08:12:00;;;;;;;4.22;0.98;;;-3.40;99.90;;;;;;5097276;28;20036;-68
2021/12/25 08:14:27;;;;;;;7.28;0.90;;;-3.50;99.90;;;;;;5100933;27;20500;-68
2021/12/25 08:16:55;;;;;;;5.25;0.95;;;-3.50;99.90;;;;;;5094203;28;20078;-68
2021/12/25 08:19:21;;;;;;;3.10;1.17;;;-3.60;99.90;;;;;;5081549;28;20039;-68
2021/12/25 08:21:47;;;;;;;3.17;0.93;;;-3.60;99.90;;;;;;5111439;28;20077;-68
2021/12/25 08:24:13;;;;;;;3.08;0.90;;;-3.60;99.90;;;;;;5134739;27;20044;-68
2021/12/25 08:26:39;;;;;;;5.05;1.00;;;-3.50;99.90;;;;;;5109431;28;20054;-68
2021/12/25 08:29:04;;;;;;;3.55;0.90;;;-3.50;99.90;;;;;;5109274;28;20062;-68
2021/12/25 08:31:30;;;;;;;1.98;0.90;;;-3.50;99.90;;;;;;5092804;28;20032;-68
2021/12/25 08:33:55;;;;;;;3.88;0.90;;;-3.50;99.90;;;;;;5092202;28;20509;-68
2021/12/25 08:36:21;;;;;;;2.90;0.47;;;-3.60;99.90;;;;;;5103960;28;20043;-68
2021/12/25 08:38:47;;;;;;;1.90;0.90;;;-3.50;99.90;;;;;;5098219;28;20036;-68
2021/12/25 08:41:12;;;;;;;1.98;0.80;;;-3.50;99.90;;;;;;5127001;27;20137;-68
2021/12/25 08:43:46;;;;;;;4.15;1.10;;;-3.30;99.90;;;;;;5087634;28;20051;-72
2021/12/25 08:46:17;;;;;;;1.88;0.65;;;-3.00;99.90;;;;;;5096917;28;20071;-74
2021/12/25 08:48:43;;;;;;;1.92;0.60;;;-2.80;99.90;;;;;;5105597;28;20033;-69
2021/12/25 08:51:09;;;;;;;2.88;0.70;;;-2.70;99.90;;;;;;5123421;27;20122;-77
2021/12/25 08:53:35;;;;;;;3.65;0.80;;;-2.60;99.90;;;;;;5111937;28;20036;-68
2021/12/25 08:56:00;;;;;;;3.35;0.75;;;-2.60;99.90;;;;;;5113601;28;20053;-68
2021/12/25 08:58:30;;;;;;;1.98;0.63;;;-2.20;99.90;;;;;;5086105;28;20189;-68
2021/12/25 09:01:00;;;;;;;1.88;0.70;;;-2.50;99.90;;;;;;5077076;28;20047;-68
2021/12/25 09:03:27;;;;;;;4.55;0.80;;;-2.80;99.90;;;;;;5081337;28;20110;-68
2021/12/25 09:05:56;;;;;;;3.10;0.75;;;-2.90;99.90;;;;;;5111830;28;20074;-68
2021/12/25 09:08:22;;;;;;;2.70;0.70;;;-2.90;99.90;;;;;;5113804;28;20035;-68
2021/12/25 09:10:47;;;;;;;2.35;1.00;;;-2.90;99.90;;;;;;5112932;28;20036;-68
2021/12/25 09:13:13;;;;;;;3.28;1.10;;;-2.70;99.90;;;;;;5113603;27;20438;-68
2021/12/25 09:15:39;;;;;;;2.22;0.65;;;-2.70;99.90;;;;;;5113328;28;20039;-68
2021/12/25 09:18:05;;;;;;;3.22;0.90;;;-2.70;99.90;;;;;;5128048;27;20043;-68
2021/12/25 09:20:30;;;;;;;2.55;0.73;;;-2.70;99.90;;;;;;5093019;28;20043;-68
2021/12/25 09:22:57;;;;;;;4.63;1.30;;;-2.70;99.90;;;;;;5075339;28;20113;-68
2021/12/25 09:25:24;;;;;;;3.90;0.98;;;-2.60;99.90;;;;;;5089695;28;20490;-68
2021/12/25 09:27:50;;;;;;;4.40;0.98;;;-2.60;99.90;;;;;;5075365;28;20513;-68
2021/12/25 09:30:16;;;;;;;4.32;1.02;;;-2.60;99.90;;;;;;5092243;28;20488;-68
2021/12/25 09:32:42;;;;;;;4.93;0.90;;;-2.60;99.90;;;;;;5092778;28;20370;-68
2021/12/25 09:35:09;;;;;;;2.83;0.85;;;-2.50;99.90;;;;;;5078395;28;20036;-68
2021/12/25 09:37:35;;;;;;;4.30;1.35;;;-2.40;99.90;;;;;;5109844;28;20044;-69
2021/12/25 09:40:03;;;;;;;2.97;1.02;;;-2.50;99.90;;;;;;5108492;28;20049;-68
2021/12/25 09:42:28;;;;;;;3.75;0.70;;;-2.70;99.90;;;;;;5112743;28;20404;-68
2021/12/25 09:44:55;;;;;;;1.95;0.80;;;-2.40;99.90;;;;;;5129031;27;20095;-68
2021/12/25 09:47:22;;;;;;;3.20;0.77;;;-2.20;99.90;;;;;;5075510;28;20127;-68
2021/12/25 09:49:48;;;;;;;3.50;0.98;;;-2.30;99.90;;;;;;5092383;28;20126;-69
2021/12/25 09:52:14;;;;;;;5.78;1.55;;;-2.30;99.90;;;;;;5109452;28;20124;-69
2021/12/25 09:54:39;;;;;;;4.00;0.98;;;-2.20;99.90;;;;;;5106009;28;20549;-68
2021/12/25 09:57:06;;;;;;;3.97;1.05;;;-2.20;99.90;;;;;;5110007;28;20547;-68
2021/12/25 09:59:32;;;;;;;2.38;0.80;;;-2.30;99.90;;;;;;5099074;28;20519;-69
2021/12/25 10:01:57;;;;;;;2.20;0.90;;;-2.00;99.90;;;;;;5092212;28;20036;-68
2021/12/25 10:04:34;;;;;;;4.93;1.13;;;-2.00;99.90;;;;;;5092235;28;20051;-69
2021/12/25 10:07:17;;;;;;;5.30;1.30;;;-1.80;99.90;;;;;;5095312;28;20077;-69
2021/12/25 10:09:52;;;;;;;2.38;1.10;;;-1.90;99.90;;;;;;5111169;28;20557;-68
2021/12/25 10:12:18;;;;;;;3.13;1.05;;;-1.90;99.90;;;;;;5095611;28;20564;-68
2021/12/25 10:14:52;;;;;;;4.43;1.27;;;-2.00;99.90;;;;;;5128050;27;20071;-68
2021/12/25 10:17:20;;;;;;;4.80;1.08;;;-1.50;99.90;;;;;;5095442;28;20039;-68
2021/12/25 10:20:01;;;;;;;6.22;1.67;;;-1.60;99.90;;;;;;5076566;28;20055;-68
2021/12/25 10:22:27;;;;;;;4.25;1.23;;;-1.60;99.90;;;;;;5091727;28;20051;-69
2021/12/25 10:25:11;;;;;;;2.15;0.90;;;-1.40;99.90;;;;;;5091541;28;20391;-69
2021/12/25 10:27:48;;;;;;;10.82;3.90;;;-1.20;99.90;;;;;;5111985;28;20126;-69
2021/12/25 10:30:13;;;;;;;4.60;1.15;;;-1.20;99.90;;;;;;5095397;28;20092;-69
2021/12/25 10:32:39;;;;;;;1.90;0.63;;;-1.10;99.90;;;;;;5108825;28;20480;-69
2021/12/25 10:35:18;;;;;;;5.18;1.10;;;-1.10;99.90;;;;;;5091902;28;20039;-68
2021/12/25 10:37:44;;;;;;;2.10;1.30;;;-0.90;99.90;;;;;;5108887;28;20078;-69
2021/12/25 10:40:25;;;;;;;2.47;0.98;;;-1.00;99.90;;;;;;5102974;28;20036;-69
2021/12/25 10:42:51;;;;;;;2.30;1.10;;;-1.00;99.30;;;;;;5102828;28;20100;-68
2021/12/25 10:45:17;;;;;;;3.67;1.17;;;-0.80;99.90;;;;;;5092078;28;20061;-69
2021/12/25 10:47:43;;;;;;;3.50;1.10;;;-0.70;99.90;;;;;;5091805;28;20040;-69
2021/12/25 10:50:18;;;;;;;3.15;1.02;;;-0.90;98.70;;;;;;5110881;28;20054;-69
2021/12/25 10:52:47;;;;;;;3.10;0.95;;;-0.80;99.90;;;;;;5116490;28;20106;-68
2021/12/25 10:55:22;;;;;;;2.85;0.82;;;-0.90;99.90;;;;;;5126701;27;20043;-69
2021/12/25 10:57:51;;;;;;;1.25;0.40;;;-1.00;99.90;;;;;;5095548;28;20036;-69
2021/12/25 11:00:20;;;;;;;1.85;0.88;;;-0.90;99.90;;;;;;5079616;28;20050;-69
2021/12/25 11:02:58;;;;;;;5.72;1.08;;;-0.90;99.50;;;;;;5095461;28;20048;-69
2021/12/25 11:05:47;;;;;;;8.50;1.10;;;-0.70;99.90;;;;;;5095634;28;20044;-69
2021/12/25 11:08:17;;;;;;;5.80;1.23;;;-0.80;99.90;;;;;;5078368;28;20044;-69
2021/12/25 11:10:52;;;;;;;5.32;1.40;;;-0.60;99.90;;;;;;5094810;28;20036;-69
2021/12/25 11:13:18;;;;;;;4.05;1.02;;;-0.50;99.90;;;;;;5095786;28;20447;-69
2021/12/25 11:15:45;;;;;;;3.08;1.17;;;-0.40;99.90;;;;;;5078700;28;20032;-69
2021/12/25 11:18:12;;;;;;;3.38;1.00;;;-0.30;99.90;;;;;;5096264;28;20032;-69
2021/12/25 11:20:40;;;;;;;2.17;0.63;;;-0.50;99.20;;;;;;5100951;28;20043;-69
2021/12/25 11:23:09;;;;;;;2.75;0.75;;;-0.30;99.90;;;;;;5114923;28;20044;-69
2021/12/25 11:25:37;;;;;;;2.42;0.77;;;-0.30;99.90;;;;;;5098260;28;20457;-69
2021/12/25 11:28:07;;;;;;;1.50;0.63;;;-0.30;99.90;;;;;;5111475;28;20424;-69
2021/12/25 11:30:35;;;;;;;4.93;1.00;;;-0.20;99.90;;;;;;5094325;28;20447;-69
2021/12/25 11:33:01;;;;;;;3.42;0.90;;;-0.50;97.70;;;;;;5094920;28;20070;-69
2021/12/25 11:35:27;;;;;;;2.88;0.73;;;-0.70;97.10;;;;;;5115289;28;20104;-69
2021/12/25 11:37:55;;;;;;;3.50;0.90;;;-0.40;99.90;;;;;;5094307;28;20047;-69
2021/12/25 11:40:25;;;;;;;3.08;0.90;;;-0.60;99.10;;;;;;5115110;28;20039;-69
2021/12/25 11:42:56;;;;;;;2.63;0.75;;;-0.70;98.50;;;;;;5081625;28;20044;-69
2021/12/25 11:45:41;;;;;;;5.32;1.55;;;-0.60;99.90;;;;;;5095128;28;20040;-69
2021/12/25 11:48:19;;;;;;;3.33;1.20;;;-0.90;99.50;;;;;;5088085;28;20040;-69
2021/12/25 11:50:48;;;;;;;3.53;1.02;;;-0.70;99.50;;;;;;5098105;28;20032;-69
2021/12/25 11:53:24;;;;;;;5.93;1.23;;;-0.80;99.90;;;;;;5085471;28;20089;-69
2021/12/25 11:58:42;;;;;;;3.17;1.10;;;-0.90;99.10;;;;;;5107258;28;20046;-69
2021/12/25 12:01:24;;;;;;;1.20;0.52;;;-0.80;99.90;;;;;;5101308;28;20063;-69
2021/12/25 12:03:57;;;;;;;4.18;0.70;;;-0.80;99.90;;;;;;5120681;27;20039;-68
2021/12/25 12:06:45;;;;;;;4.55;0.80;;;-0.90;99.60;;;;;;5148706;27;20093;-69
2021/12/25 12:09:37;;;;;;;2.05;0.70;;;-0.80;99.90;;;;;;5107167;27;20096;-69
2021/12/25 12:12:03;;;;;;;4.25;1.42;;;-0.80;99.90;;;;;;5111169;28;20517;-69
2021/12/25 12:14:29;;;;;;;2.35;0.80;;;-0.80;99.90;;;;;;5113501;27;20067;-69
2021/12/25 12:17:04;;;;;;;3.85;1.27;;;-0.90;99.90;;;;;;5113734;28;20122;-69
2021/12/25 12:19:33;;;;;;;5.22;1.20;;;-1.00;99.90;;;;;;5113624;28;20416;-69
2021/12/25 12:22:15;;;;;;;3.70;0.80;;;-0.90;99.90;;;;;;5114143;28;20567;-69
2021/12/25 12:24:48;;;;;;;2.35;1.05;;;-0.90;99.90;;;;;;5113558;28;20047;-68
2021/12/25 12:27:31;;;;;;;3.08;0.85;;;-1.00;98.20;;;;;;5108015;28;20047;-69
2021/12/25 12:29:57;;;;;;;0.63;0.40;;;-1.00;99.90;;;;;;5076953;28;20488;-69
2021/12/25 12:32:45;;;;;;;2.35;0.88;;;-0.90;99.90;;;;;;5115661;27;20169;-69
2021/12/25 12:35:29;;;;;;;2.95;1.00;;;-0.90;99.90;;;;;;5110460;28;20032;-69
2021/12/25 12:38:14;;;;;;;4.57;1.10;;;-0.90;99.90;;;;;;5110189;28;20043;-69
2021/12/25 12:40:40;;;;;;;4.18;1.27;;;-0.80;99.90;;;;;;5081290;28;20043;-69
2021/12/25 12:43:06;;;;;;;1.70;0.90;;;-1.00;99.70;;;;;;5118620;27;20047;-69
2021/12/25 12:45:37;;;;;;;4.28;1.40;;;-1.10;99.20;;;;;;5077549;28;20044;-69
2021/12/25 12:48:07;;;;;;;3.95;1.10;;;-1.10;99.10;;;;;;5091592;28;20040;-69
2021/12/25 12:50:34;;;;;;;4.47;1.10;;;-1.10;98.20;;;;;;5097104;28;20039;-69
2021/12/25 12:53:02;;;;;;;3.80;1.23;;;-1.20;97.40;;;;;;5113288;28;20068;-69
2021/12/25 12:55:32;;;;;;;4.10;0.90;;;-1.10;98.10;;;;;;5096042;28;20035;-69
2021/12/25 12:58:11;;;;;;;2.90;1.10;;;-1.10;99.90;;;;;;5096287;28;20046;-69
2021/12/25 13:00:37;;;;;;;4.03;1.10;;;-1.00;99.70;;;;;;5110569;28;20043;-69
2021/12/25 13:03:04;;;;;;;5.00;1.35;;;-1.00;99.70;;;;;;5113183;28;20047;-69
2021/12/25 13:05:33;;;;;;;4.30;1.08;;;-0.90;99.90;;;;;;5113223;28;20047;-69
2021/12/25 13:08:02;;;;;;;2.55;0.90;;;-1.00;99.80;;;;;;5112326;27;20400;-69
2021/12/25 13:10:41;;;;;;;1.52;0.75;;;-0.90;99.90;;;;;;5079898;28;20043;-69
2021/12/25 13:13:13;;;;;;;3.67;0.90;;;-0.90;99.60;;;;;;5110901;28;20088;-69
2021/12/25 13:15:41;;;;;;;;;;;-0.90;98.90;;;;;;5093151;28;20119;-69
2021/12/25 13:18:07;;;;;;;4.30;0.93;;;-1.10;98.40;;;;;;5081401;28;19919;-69
2021/12/25 13:20:43;;;;;;;4.93;0.80;;;-0.90;98.30;;;;;;5113225;28;20051;-69
2021/12/25 13:23:22;;;;;;;3.90;0.85;;;-1.00;98.90;;;;;;5139306;27;20043;-69
2021/12/25 13:25:49;;;;;;;4.25;0.77;;;-1.10;99.80;;;;;;5092748;28;20044;-69
2021/12/25 13:28:15;;;;;;;4.15;1.00;;;-1.00;99.20;;;;;;5116043;27;20091;-69
2021/12/25 13:30:47;;;;;;;2.72;0.98;;;-0.90;97.70;;;;;;5090235;28;20031;-69
2021/12/25 13:33:15;;;;;;;7.90;2.30;;;-0.90;99.90;;;;;;5104495;28;20081;-69
2021/12/25 13:35:42;;;;;;;4.55;1.42;;;-1.10;98.90;;;;;;5095041;28;20544;-69
2021/12/25 13:38:08;;;;;;;3.97;1.30;;;-1.10;99.00;;;;;;5095686;28;20051;-69
2021/12/25 13:40:37;;;;;;;6.93;1.92;;;-1.00;99.50;;;;;;5112276;28;20047;-69
2021/12/25 13:43:10;;;;;;;4.45;1.23;;;-0.90;99.90;;;;;;5095348;28;20044;-69
2021/12/25 13:45:37;;;;;;;3.83;0.90;;;-0.90;99.90;;;;;;5083565;28;20093;-69
2021/12/25 13:48:04;;;;;;;1.88;1.00;;;-0.90;99.80;;;;;;5084590;28;20380;-69
2021/12/25 13:50:30;;;;;;;2.75;0.82;;;-0.80;99.90;;;;;;5112401;28;20480;-69
2021/12/25 13:52:59;;;;;;;2.90;0.88;;;-0.80;99.90;;;;;;5111097;28;20077;-69
2021/12/25 13:55:28;;;;;;;4.68;1.40;;;-0.80;99.90;;;;;;5112352;28;20043;-69
2021/12/25 13:57:59;;;;;;;5.47;0.90;;;-0.70;99.90;;;;;;5111929;28;20530;-69
2021/12/25 14:00:38;;;;;;;3.42;1.02;;;-0.80;99.90;;;;;;5112544;28;20036;-69
2021/12/25 14:03:10;;;;;;;4.85;1.17;;;-0.80;99.80;;;;;;5111668;28;20531;-69
2021/12/25 14:05:42;;;;;;;3.25;0.95;;;-0.80;98.70;;;;;;5112198;28;20044;-69
2021/12/25 14:08:08;;;;;;;4.22;1.13;;;-1.00;99.10;;;;;;5112278;28;20043;-69